Time;durP1;ratioP1;P1;durP2;ratioP2;P2;SDS_P1;SDS_P2;PMS_P1;PMS_P2;Temp;Humidity;BMP_temperature;BMP_pressure;BME280_temperature;BME280_humidity;BME280_pressure;Samples;Min_cycle;Max_cycle;Signal;HPM_P1;HPM_P2
2022/06/29 00:00:25;;;;;;;3.27;2.05;;;;;;;26.37;42.69;101467.63;1736324;82;21042;-53
2022/06/29 00:02:53;;;;;;;4.30;1.52;;;;;;;26.34;42.47;101474.04;1649139;86;21042;-50
2022/06/29 00:05:22;;;;;;;3.35;1.52;;;;;;;26.32;42.72;101473.78;1694602;83;21058;-50
2022/06/29 00:07:49;;;;;;;3.87;1.82;;;;;;;26.30;43.00;101478.38;1684200;83;21065;-49
2022/06/29 00:10:16;;;;;;;2.58;1.32;;;;;;;26.30;43.02;101478.38;1688667;84;21062;-51
2022/06/29 00:12:44;;;;;;;4.65;1.50;;;;;;;26.29;42.91;101475.36;1693896;83;21547;-52
2022/06/29 00:15:12;;;;;;;3.58;1.70;;;;;;;26.28;42.74;101478.51;1679570;83;21046;-49
2022/06/29 00:17:38;;;;;;;3.42;2.00;;;;;;;26.28;42.66;101477.17;1694061;84;21070;-51
2022/06/29 00:20:07;;;;;;;3.20;1.75;;;;;;;26.27;42.75;101483.97;1681593;84;21568;-48
2022/06/29 00:22:35;;;;;;;2.05;1.40;;;;;;;26.26;42.93;101476.91;1691627;83;21137;-50
2022/06/29 00:25:03;;;;;;;3.87;1.50;;;;;;;26.25;42.75;101482.76;1690410;83;21058;-48
2022/06/29 00:27:29;;;;;;;1.90;1.70;;;;;;;26.24;42.84;101475.70;1695117;83;21054;-51
2022/06/29 00:29:56;;;;;;;3.92;1.42;;;;;;;26.23;42.88;101474.50;1688352;84;21054;-52
2022/06/29 00:32:23;;;;;;;2.70;1.75;;;;;;;26.23;42.97;101477.16;1694785;83;21003;-50
2022/06/29 00:34:50;;;;;;;6.00;2.58;;;;;;;26.23;43.03;101473.16;1691448;83;21043;-53
2022/06/29 00:37:17;;;;;;;4.03;1.72;;;;;;;26.23;43.10;101469.16;1690221;83;21531;-50
2022/06/29 00:39:43;;;;;;;4.37;1.75;;;;;;;26.22;43.04;101470.11;1689448;83;21106;-48
2022/06/29 00:42:10;;;;;;;3.55;1.70;;;;;;;26.21;42.94;101467.09;1689944;83;21035;-48
2022/06/29 00:44:38;;;;;;;2.72;1.57;;;;;;;26.19;42.94;101467.70;1689850;83;21090;-51
2022/06/29 00:47:05;;;;;;;3.05;1.77;;;;;;;26.18;43.02;101457.97;1690992;84;21098;-51
2022/06/29 00:49:34;;;;;;;1.90;1.55;;;;;;;26.16;43.04;101459.91;1692744;83;21039;-49
2022/06/29 00:52:08;;;;;;;6.40;1.80;;;;;;;26.15;43.06;101455.55;1693459;82;21585;-50
2022/06/29 00:54:43;;;;;;;5.75;1.80;;;;;;;26.13;43.13;101447.64;1705766;83;21557;-48
2022/06/29 00:57:17;;;;;;;5.12;2.20;;;;;;;26.12;43.21;101447.77;1695666;84;21026;-51
2022/06/29 00:59:50;;;;;;;4.47;1.82;;;;;;;26.11;43.37;101452.75;1680855;85;21038;-50
2022/06/29 01:02:19;;;;;;;3.42;1.90;;;;;;;26.09;43.58;101450.69;1664331;85;21079;-52
2022/06/29 01:04:46;;;;;;;4.95;1.72;;;;;;;26.07;43.82;101441.91;1682721;85;21046;-48
2022/06/29 01:07:19;;;;;;;5.75;1.82;;;;;;;26.06;44.07;101453.53;1671163;85;20991;-49
2022/06/29 01:09:46;;;;;;;6.80;2.40;;;;;;;26.04;44.41;101448.80;1683426;85;21143;-49
2022/06/29 01:12:13;;;;;;;9.15;2.30;;;;;;;26.02;44.70;101450.73;1670701;85;21071;-50
2022/06/29 01:14:42;;;;;;;2.70;1.98;;;;;;;26.00;44.86;101456.66;1680422;85;21106;-49
2022/06/29 01:17:09;;;;;;;7.00;2.08;;;;;;;25.97;44.96;101452.88;1668416;85;21043;-50
2022/06/29 01:19:36;;;;;;;5.37;2.30;;;;;;;25.97;44.94;101456.87;1671627;85;21102;-50
2022/06/29 01:22:13;;;;;;;9.25;2.42;;;;;;;25.94;45.20;101462.45;1680774;85;21050;-50
2022/06/29 01:24:40;;;;;;;4.65;2.17;;;;;;;25.91;45.38;101462.67;1676423;85;21102;-52
2022/06/29 01:27:07;;;;;;;4.45;2.58;;;;;;;25.88;45.54;101471.77;1683154;85;21332;-49
2022/06/29 01:29:34;;;;;;;5.72;2.40;;;;;;;25.88;45.85;101468.25;1679331;85;21066;-48
2022/06/29 01:32:01;;;;;;;5.72;2.80;;;;;;;25.87;46.35;101463.86;1678438;85;21074;-48
2022/06/29 01:34:29;;;;;;;11.25;3.00;;;;;;;25.88;47.87;101466.44;1677514;85;21535;-49
2022/06/29 01:36:56;;;;;;;10.63;3.58;;;;;;;25.90;49.27;101460.98;1678115;85;21030;-54
2022/06/29 01:39:23;;;;;;;8.98;3.35;;;;;;;25.94;50.31;101463.78;1678084;85;21054;-51
2022/06/29 01:41:50;;;;;;;6.70;2.72;;;;;;;25.97;50.93;101448.88;1679677;85;21082;-49
2022/06/29 01:44:17;;;;;;;6.67;2.40;;;;;;;26.00;51.03;101452.19;1680840;85;21051;-50
2022/06/29 01:46:44;;;;;;;6.28;2.80;;;;;;;26.02;51.39;101446.73;1680421;85;21103;-49
2022/06/29 01:49:11;;;;;;;6.50;3.20;;;;;;;26.07;51.49;101447.25;1678046;85;21078;-51
2022/06/29 01:51:38;;;;;;;3.35;2.42;;;;;;;26.10;51.38;101450.56;1679734;85;21054;-51
2022/06/29 01:54:06;;;;;;;3.75;3.00;;;;;;;26.14;51.36;101444.02;1687796;83;21570;-49
2022/06/29 01:56:35;;;;;;;10.82;3.00;;;;;;;26.18;51.39;101444.16;1709920;82;21011;-49
2022/06/29 01:59:02;;;;;;;3.60;2.60;;;;;;;26.22;51.32;101448.77;1703442;82;21019;-50
2022/06/29 02:01:30;;;;;;;9.50;3.30;;;;;;;26.26;51.21;101450.23;1703691;82;21102;-53
2022/06/29 02:03:56;;;;;;;10.88;3.00;;;;;;;26.28;51.23;101446.49;1697533;83;21518;-51
2022/06/29 02:06:24;;;;;;;9.78;3.55;;;;;;;26.32;51.04;101451.10;1701947;82;21065;-50
2022/06/29 02:08:52;;;;;;;5.83;3.00;;;;;;;26.35;51.06;101452.22;1701295;82;21050;-48
2022/06/29 02:11:19;;;;;;;7.42;3.33;;;;;;;26.38;50.88;101447.96;1702262;82;21091;-52
2022/06/29 02:13:47;;;;;;;7.30;3.20;;;;;;;26.41;50.65;101453.08;1705403;82;21102;-49
2022/06/29 02:16:13;;;;;;;4.62;3.17;;;;;;;26.43;50.61;101457.81;1702506;83;21086;-49
2022/06/29 02:18:41;;;;;;;7.25;3.52;;;;;;;26.48;50.59;101456.98;1695444;82;21051;-50
2022/06/29 02:21:09;;;;;;;6.97;3.52;;;;;;;26.50;50.63;101453.72;1700114;82;21039;-51
2022/06/29 02:23:37;;;;;;;8.83;3.30;;;;;;;26.54;50.42;101459.19;1700866;82;21023;-49
2022/06/29 02:26:03;;;;;;;4.35;3.27;;;;;;;26.57;50.38;101460.27;1701042;82;21531;-50
2022/06/29 02:28:30;;;;;;;5.17;3.70;;;;;;;26.59;50.32;101455.66;1698860;82;21050;-51
2022/06/29 02:36:28;;;;;;;8.00;3.50;;;;;;;26.65;49.57;101449.02;1692408;82;21160;-50
2022/06/29 02:38:55;;;;;;;6.45;3.77;;;;;;;26.65;49.85;101447.17;1699725;82;21023;-53
2022/06/29 02:41:22;;;;;;;6.37;3.37;;;;;;;26.67;49.81;101450.57;1699705;84;21089;-49
2022/06/29 02:43:49;;;;;;;5.42;3.62;;;;;;;26.69;49.60;101443.80;1700808;82;21043;-49
2022/06/29 02:46:15;;;;;;;6.12;3.40;;;;;;;26.71;49.43;101448.03;1700803;82;21507;-49
2022/06/29 02:48:42;;;;;;;6.00;3.10;;;;;;;26.73;49.38;101456.80;1698233;82;21476;-52
2022/06/29 02:51:09;;;;;;;5.50;3.33;;;;;;;26.72;49.39;101445.77;1698076;82;21046;-49
2022/06/29 02:53:36;;;;;;;8.88;3.52;;;;;;;26.72;49.47;101443.10;1697802;82;21046;-52
2022/06/29 02:56:04;;;;;;;4.90;3.40;;;;;;;26.73;49.45;101449.30;1697733;82;21094;-51
2022/06/29 02:58:30;;;;;;;7.58;3.67;;;;;;;26.72;49.56;101448.92;1699253;82;21554;-51
2022/06/29 03:00:57;;;;;;;5.65;3.67;;;;;;;26.72;49.89;101449.77;1700963;82;21555;-52
2022/06/29 03:03:24;;;;;;;6.15;3.25;;;;;;;26.73;50.20;101451.45;1700826;82;21094;-51
2022/06/29 03:05:51;;;;;;;4.47;3.20;;;;;;;26.75;50.27;101447.36;1698946;82;21040;-49
2022/06/29 03:08:17;;;;;;;5.92;3.20;;;;;;;26.74;50.40;101437.63;1699194;82;21572;-51
2022/06/29 03:10:44;;;;;;;7.90;3.22;;;;;;;26.75;50.51;101444.18;1700328;84;21047;-48
2022/06/29 03:13:11;;;;;;;9.08;3.17;;;;;;;26.76;50.67;101444.56;1700746;82;21098;-49
2022/06/29 03:15:38;;;;;;;3.98;3.00;;;;;;;26.77;50.82;101434.73;1701037;82;21566;-51
2022/06/29 03:18:06;;;;;;;8.48;3.22;;;;;;;26.79;50.98;101444.81;1698851;82;21039;-49
2022/06/29 03:20:33;;;;;;;5.28;3.22;;;;;;;26.80;51.05;101445.16;1701292;82;21038;-50
2022/06/29 03:23:00;;;;;;;4.10;2.65;;;;;;;26.81;50.91;101444.20;1710944;83;21097;-54
2022/06/29 03:25:27;;;;;;;7.90;3.40;;;;;;;26.81;50.21;101434.34;1704912;83;21022;-53
2022/06/29 03:27:54;;;;;;;4.30;2.87;;;;;;;26.81;49.18;101427.67;1695150;84;21047;-49
2022/06/29 03:30:21;;;;;;;5.50;2.95;;;;;;;26.80;48.29;101432.67;1696058;83;21043;-52
2022/06/29 03:32:48;;;;;;;8.00;3.30;;;;;;;26.78;47.67;101425.73;1696012;83;21587;-51
2022/06/29 03:35:14;;;;;;;7.40;3.20;;;;;;;26.74;47.84;101419.80;1693839;83;21024;-49
2022/06/29 03:37:41;;;;;;;6.87;3.05;;;;;;;26.72;47.77;101423.55;1693132;83;21032;-52
2022/06/29 03:40:10;;;;;;;8.00;3.37;;;;;;;26.70;47.89;101418.31;1693123;83;21015;-50
2022/06/29 03:42:38;;;;;;;3.80;2.67;;;;;;;26.69;47.79;101429.12;1693240;83;21031;-51
2022/06/29 03:45:06;;;;;;;6.78;3.15;;;;;;;26.70;48.08;101415.64;1693087;83;21079;-50
2022/06/29 03:47:33;;;;;;;6.67;3.52;;;;;;;26.80;48.06;101427.33;1695481;83;21035;-50
2022/06/29 03:50:00;;;;;;;5.03;2.85;;;;;;;27.02;48.03;101434.00;1692122;84;21086;-55
2022/06/29 03:52:27;;;;;;;4.10;3.47;;;;;;;27.31;47.63;101436.52;1690421;83;21039;-50
2022/06/29 03:54:53;;;;;;;3.62;2.87;;;;;;;27.65;46.91;101432.47;1693565;83;21476;-51
2022/06/29 03:57:20;;;;;;;6.15;3.20;;;;;;;27.99;46.40;101440.76;1693319;83;21000;-54
2022/06/29 03:59:47;;;;;;;6.62;2.80;;;;;;;28.35;45.62;101437.67;1691491;83;21038;-54
2022/06/29 04:02:14;;;;;;;7.50;2.62;;;;;;;28.60;45.34;101437.30;1695282;83;21043;-52
2022/06/29 04:04:40;;;;;;;5.83;3.25;;;;;;;28.77;44.97;101435.33;1698991;84;21495;-49
2022/06/29 04:07:09;;;;;;;8.25;3.08;;;;;;;28.84;44.64;101440.52;1705594;83;21039;-50
2022/06/29 04:09:36;;;;;;;6.72;3.25;;;;;;;28.78;44.61;101441.55;1695421;83;21058;-49
2022/06/29 04:12:04;;;;;;;6.20;3.47;;;;;;;28.71;44.83;101447.06;1701157;82;21034;-52
2022/06/29 04:14:31;;;;;;;4.65;3.20;;;;;;;28.60;45.08;101455.19;1700802;83;21071;-51
2022/06/29 04:16:58;;;;;;;5.92;3.42;;;;;;;28.45;45.27;101450.63;1697665;83;21543;-50
2022/06/29 04:19:25;;;;;;;5.65;3.20;;;;;;;28.41;45.78;101449.19;1699787;84;20971;-51
2022/06/29 04:21:53;;;;;;;5.10;3.22;;;;;;;28.42;45.79;101450.87;1686875;83;21063;-52
2022/06/29 04:24:20;;;;;;;4.72;3.60;;;;;;;28.38;45.92;101448.10;1690684;83;21067;-48
2022/06/29 04:26:46;;;;;;;5.25;3.30;;;;;;;28.36;46.49;101454.59;1691687;83;21491;-49
2022/06/29 04:29:14;;;;;;;5.70;3.12;;;;;;;28.31;46.71;101460.33;1693787;83;21039;-49
2022/06/29 04:31:41;;;;;;;5.12;3.37;;;;;;;28.25;46.98;101456.83;1693390;83;21125;-50
2022/06/29 04:34:09;;;;;;;4.62;3.70;;;;;;;28.20;47.43;101464.38;1691249;83;21090;-50
2022/06/29 04:36:36;;;;;;;4.85;3.22;;;;;;;28.13;47.39;101459.20;1692142;83;21055;-51
2022/06/29 04:39:03;;;;;;;3.65;3.00;;;;;;;28.08;47.50;101466.75;1691171;84;21039;-50
2022/06/29 04:41:30;;;;;;;4.62;3.15;;;;;;;28.02;47.77;101462.77;1690792;83;21043;-55
2022/06/29 04:43:57;;;;;;;4.05;3.42;;;;;;;28.00;47.92;101470.08;1696568;83;21048;-52
2022/06/29 04:46:24;;;;;;;5.00;3.65;;;;;;;27.99;48.22;101464.84;1691589;83;21050;-49
2022/06/29 04:48:58;;;;;;;5.60;3.37;;;;;;;27.98;48.71;101469.84;1690185;83;21071;-55
2022/06/29 04:51:26;;;;;;;3.90;3.52;;;;;;;27.95;49.45;101466.03;1684190;83;21027;-54
2022/06/29 04:53:54;;;;;;;5.03;3.47;;;;;;;27.94;49.78;101468.37;1693129;83;21003;-50
2022/06/29 04:56:22;;;;;;;4.72;4.30;;;;;;;27.96;50.06;101465.97;1690493;83;21027;-52
2022/06/29 04:58:50;;;;;;;5.20;3.75;;;;;;;28.00;49.88;101462.54;1692368;83;21050;-51
2022/06/29 05:01:18;;;;;;;5.70;3.70;;;;;;;28.06;49.83;101466.03;1691283;84;21003;-51
2022/06/29 05:03:45;;;;;;;4.00;3.60;;;;;;;28.12;49.80;101468.20;1694299;83;21500;-51
2022/06/29 05:06:13;;;;;;;4.95;3.83;;;;;;;28.20;49.95;101471.08;1693467;83;21035;-51
2022/06/29 05:08:41;;;;;;;4.83;3.67;;;;;;;28.32;49.65;101470.03;1691256;83;21043;-52
2022/06/29 05:11:07;;;;;;;4.10;3.67;;;;;;;28.46;49.30;101468.89;1680875;83;21067;-51
2022/06/29 05:13:34;;;;;;;5.67;4.08;;;;;;;28.62;48.78;101467.48;1691988;83;21038;-50
2022/06/29 05:16:04;;;;;;;4.72;4.10;;;;;;;28.79;48.21;101468.70;1692364;84;21590;-51
2022/06/29 05:18:32;;;;;;;5.65;3.95;;;;;;;28.98;47.81;101466.09;1693746;83;21480;-49
2022/06/29 05:20:59;;;;;;;4.10;3.80;;;;;;;29.20;47.62;101469.12;1687337;83;21043;-51
2022/06/29 05:23:27;;;;;;;5.15;4.10;;;;;;;29.48;47.21;101477.74;1713629;82;20995;-52
2022/06/29 05:25:54;;;;;;;4.70;4.20;;;;;;;29.74;46.73;101468.22;1714332;82;20982;-52
2022/06/29 05:28:20;;;;;;;6.90;4.08;;;;;;;29.96;46.19;101473.35;1712926;82;21061;-52
2022/06/29 05:30:47;;;;;;;4.42;4.05;;;;;;;30.19;45.97;101472.58;1711877;82;21050;-52
2022/06/29 05:33:14;;;;;;;5.15;4.15;;;;;;;30.41;45.34;101471.81;1713181;83;21069;-57
2022/06/29 05:35:41;;;;;;;8.33;4.00;;;;;;;30.58;45.03;101472.91;1714097;83;21034;-50
2022/06/29 05:38:08;;;;;;;5.17;4.33;;;;;;;30.71;44.62;101476.11;1714217;82;21019;-50
2022/06/29 05:40:36;;;;;;;4.72;4.20;;;;;;;30.80;44.25;101475.74;1712728;82;21566;-49
2022/06/29 05:43:03;;;;;;;7.85;4.40;;;;;;;30.86;44.28;101473.84;1710956;82;21027;-52
2022/06/29 05:45:30;;;;;;;4.80;4.33;;;;;;;30.91;44.19;101467.55;1711045;82;21050;-50
2022/06/29 05:47:57;;;;;;;7.45;4.58;;;;;;;30.96;44.01;101474.16;1710987;82;21038;-51
2022/06/29 05:50:24;;;;;;;4.80;4.30;;;;;;;31.03;43.83;101470.39;1711355;82;21030;-50
2022/06/29 05:52:51;;;;;;;5.75;5.12;;;;;;;31.11;43.57;101479.42;1712351;82;21578;-50
2022/06/29 05:55:18;;;;;;;7.20;4.47;;;;;;;31.17;43.48;101476.63;1714216;82;21038;-49
2022/06/29 05:57:45;;;;;;;5.30;4.50;;;;;;;31.24;43.37;101473.70;1713841;82;21491;-49
2022/06/29 06:00:14;;;;;;;4.75;4.45;;;;;;;31.31;43.32;101480.16;1717760;82;21042;-52
2022/06/29 06:02:40;;;;;;;5.10;4.70;;;;;;;31.39;43.14;101484.33;1712917;82;21117;-54
2022/06/29 06:05:08;;;;;;;6.90;4.22;;;;;;;31.54;43.27;101490.91;1713205;83;21029;-52
2022/06/29 06:07:35;;;;;;;4.60;4.20;;;;;;;31.73;43.06;101489.45;1714309;82;21070;-48
2022/06/29 06:10:02;;;;;;;4.92;4.42;;;;;;;31.92;42.55;101497.37;1713844;82;21035;-52
2022/06/29 06:12:30;;;;;;;6.35;4.58;;;;;;;32.07;41.78;101501.27;1709408;82;21022;-53
2022/06/29 06:14:58;;;;;;;5.33;4.80;;;;;;;32.16;41.04;101495.95;1711235;82;21058;-49
2022/06/29 06:17:28;;;;;;;5.00;4.50;;;;;;;32.19;40.60;101503.20;1711275;82;21006;-52
2022/06/29 06:19:55;;;;;;;5.55;4.75;;;;;;;32.21;39.31;101499.89;1711202;82;21046;-54
2022/06/29 06:22:22;;;;;;;5.05;4.65;;;;;;;32.25;38.17;101495.03;1696702;83;21024;-51
2022/06/29 06:24:48;;;;;;;15.13;6.03;;;;;;;32.38;37.11;101486.03;1693413;83;21067;-51
2022/06/29 06:27:16;;;;;;;5.47;4.87;;;;;;;32.55;36.83;101486.54;1693226;83;21089;-53
2022/06/29 06:29:43;;;;;;;5.80;5.17;;;;;;;32.84;36.30;101480.34;1690916;83;21551;-51
2022/06/29 06:32:10;;;;;;;5.08;4.67;;;;;;;33.10;35.66;101479.83;1691501;83;21095;-56
2022/06/29 06:34:37;;;;;;;7.95;4.62;;;;;;;33.32;35.00;101473.89;1692937;84;21642;-52
2022/06/29 06:37:04;;;;;;;5.25;4.75;;;;;;;33.47;34.38;101471.37;1693353;83;21032;-49
2022/06/29 06:39:31;;;;;;;5.42;4.92;;;;;;;33.46;34.21;101463.81;1693501;83;21000;-49
2022/06/29 06:41:59;;;;;;;5.90;5.40;;;;;;;33.43;34.38;101464.13;1683866;83;21575;-53
2022/06/29 06:44:25;;;;;;;11.55;5.95;;;;;;;33.38;34.45;101461.09;1690607;83;21008;-50
2022/06/29 06:46:52;;;;;;;8.93;5.62;;;;;;;33.29;34.44;101452.62;1688497;83;21051;-50
2022/06/29 06:49:25;;;;;;;6.33;4.97;;;;;;;33.20;34.40;101452.23;1690341;83;21031;-50
2022/06/29 06:51:52;;;;;;;5.65;5.15;;;;;;;33.10;34.34;101448.81;1690638;83;21103;-50
2022/06/29 06:54:19;;;;;;;5.33;4.80;;;;;;;32.99;34.76;101444.23;1691051;83;21543;-51
2022/06/29 06:56:46;;;;;;;6.20;5.60;;;;;;;32.92;34.89;101443.98;1690331;83;21046;-49
2022/06/29 06:59:13;;;;;;;5.78;5.17;;;;;;;32.84;34.82;101438.56;1690786;83;21080;-51
2022/06/29 07:01:40;;;;;;;8.55;5.12;;;;;;;32.77;35.02;101437.49;1692345;83;21043;-50
2022/06/29 07:04:07;;;;;;;7.30;5.12;;;;;;;32.71;35.38;101437.64;1693425;83;21083;-50
2022/06/29 07:06:34;;;;;;;5.37;4.67;;;;;;;32.66;35.42;101442.69;1692597;83;21079;-56
2022/06/29 07:09:01;;;;;;;5.87;5.25;;;;;;;32.63;35.58;101439.44;1689833;84;21079;-49
2022/06/29 07:11:29;;;;;;;5.97;4.87;;;;;;;32.61;35.77;101435.56;1680839;83;21523;-49
2022/06/29 07:13:56;;;;;;;8.15;5.53;;;;;;;32.61;35.74;101441.45;1693282;83;21054;-53
2022/06/29 07:16:23;;;;;;;5.92;5.42;;;;;;;32.61;35.60;101437.41;1691112;83;21602;-50
2022/06/29 07:18:50;;;;;;;5.55;5.05;;;;;;;32.60;35.51;101436.55;1692035;83;21584;-51
2022/06/29 07:21:17;;;;;;;5.70;5.03;;;;;;;32.59;35.73;101432.67;1692452;84;21535;-50
2022/06/29 07:23:44;;;;;;;5.90;5.17;;;;;;;32.61;35.90;101440.95;1704451;82;21038;-52
2022/06/29 07:26:11;;;;;;;11.50;6.00;;;;;;;32.64;36.27;101431.71;1698486;82;21023;-50
2022/06/29 07:28:39;;;;;;;12.78;5.30;;;;;;;32.70;36.48;101441.85;1700885;82;21043;-51
2022/06/29 07:31:08;;;;;;;6.03;5.45;;;;;;;32.81;36.73;101437.52;1704792;82;21079;-51
2022/06/29 07:33:35;;;;;;;6.03;5.42;;;;;;;33.01;36.41;101439.02;1700282;82;21055;-52
2022/06/29 07:36:02;;;;;;;5.30;4.90;;;;;;;33.25;35.91;101439.11;1700416;84;21554;-51
2022/06/29 07:38:29;;;;;;;5.62;5.12;;;;;;;33.42;35.62;101442.22;1701187;83;21043;-50
2022/06/29 07:40:58;;;;;;;7.17;5.45;;;;;;;33.52;35.06;101434.84;1701275;82;21551;-52
2022/06/29 07:43:25;;;;;;;5.45;4.95;;;;;;;33.58;34.85;101433.33;1704811;82;21058;-51
2022/06/29 07:45:52;;;;;;;5.90;5.12;;;;;;;33.59;34.67;101430.46;1698817;82;21074;-50
2022/06/29 07:48:19;;;;;;;5.35;4.85;;;;;;;33.58;34.77;101434.19;1698212;82;21063;-50
2022/06/29 07:50:46;;;;;;;4.80;4.40;;;;;;;33.56;34.69;101433.52;1698270;82;21015;-51
2022/06/29 07:53:13;;;;;;;6.20;4.90;;;;;;;33.55;34.81;101449.88;1698554;82;21547;-52
2022/06/29 07:55:40;;;;;;;5.37;4.97;;;;;;;33.54;34.81;101449.02;1699103;82;21078;-49
2022/06/29 07:58:07;;;;;;;5.45;4.85;;;;;;;33.53;34.68;101441.92;1700137;82;21019;-52
2022/06/29 08:00:34;;;;;;;5.92;5.28;;;;;;;33.52;34.88;101442.95;1700460;84;21015;-51
2022/06/29 08:03:01;;;;;;;5.83;5.33;;;;;;;33.53;35.12;101446.50;1701277;82;21519;-49
2022/06/29 08:05:28;;;;;;;8.28;5.60;;;;;;;33.53;34.99;101449.20;1701426;82;21007;-52
2022/06/29 08:07:56;;;;;;;6.87;5.83;;;;;;;33.53;34.93;101445.15;1699219;82;21579;-49
2022/06/29 08:10:23;;;;;;;6.62;5.87;;;;;;;33.50;34.79;101443.62;1691581;82;21075;-51
2022/06/29 08:12:50;;;;;;;5.78;5.28;;;;;;;33.51;34.83;101446.64;1699675;82;21090;-50
2022/06/29 08:15:17;;;;;;;6.67;6.15;;;;;;;33.48;34.54;101444.75;1701395;82;21499;-50
2022/06/29 08:17:48;;;;;;;6.00;5.50;;;;;;;33.46;34.35;101447.63;1697220;84;21555;-50
2022/06/29 08:20:15;;;;;;;6.00;5.03;;;;;;;33.46;34.50;101450.32;1691189;82;21484;-51
2022/06/29 08:22:42;;;;;;;6.33;5.25;;;;;;;33.48;34.59;101452.35;1698247;82;21079;-51
2022/06/29 08:25:09;;;;;;;9.70;5.30;;;;;;;33.51;34.24;101457.44;1707424;82;21613;-50
2022/06/29 08:27:38;;;;;;;6.22;5.42;;;;;;;33.52;34.00;101461.84;1701105;82;21094;-49
2022/06/29 08:30:08;;;;;;;5.85;5.35;;;;;;;33.52;34.08;101462.33;1677409;84;21110;-53
2022/06/29 08:32:35;;;;;;;6.25;5.50;;;;;;;33.50;33.96;101461.16;1716038;82;21026;-51
2022/06/29 08:35:02;;;;;;;5.47;4.90;;;;;;;33.51;34.21;101453.91;1717924;82;21078;-50
2022/06/29 08:37:29;;;;;;;5.03;4.62;;;;;;;33.51;34.34;101462.83;1714372;82;20998;-54
2022/06/29 08:39:56;;;;;;;5.55;5.05;;;;;;;33.51;34.44;101460.13;1720430;82;21030;-49
2022/06/29 08:42:23;;;;;;;6.75;5.10;;;;;;;33.55;34.48;101461.48;1710313;82;21143;-51
2022/06/29 08:44:51;;;;;;;4.95;4.45;;;;;;;33.54;34.31;101467.91;1715878;82;21498;-50
2022/06/29 08:47:19;;;;;;;5.12;4.70;;;;;;;33.58;34.17;101473.81;1716804;82;21583;-51
2022/06/29 08:49:46;;;;;;;4.83;4.42;;;;;;;33.63;34.24;101476.35;1714531;83;21038;-50
2022/06/29 08:52:13;;;;;;;4.90;4.50;;;;;;;33.67;34.52;101477.39;1711187;81;21025;-51
2022/06/29 08:54:43;;;;;;;5.37;4.78;;;;;;;33.70;34.62;101472.49;1709554;83;21045;-50
2022/06/29 08:57:10;;;;;;;5.40;4.90;;;;;;;33.72;34.70;101477.75;1718440;82;21081;-55
2022/06/29 08:59:37;;;;;;;5.50;5.00;;;;;;;33.75;34.87;101474.70;1716384;82;21042;-53
2022/06/29 09:02:04;;;;;;;5.17;4.78;;;;;;;33.77;35.07;101472.68;1715881;82;21076;-52
2022/06/29 09:04:31;;;;;;;4.97;4.60;;;;;;;33.82;35.31;101479.27;1715151;82;21010;-50
2022/06/29 09:06:59;;;;;;;6.15;5.00;;;;;;;33.86;35.37;101475.75;1716414;82;21576;-51
2022/06/29 09:09:26;;;;;;;5.47;4.92;;;;;;;33.92;35.61;101473.73;1716079;82;21073;-50
2022/06/29 09:11:53;;;;;;;5.33;4.92;;;;;;;34.01;35.59;101482.19;1718452;83;21053;-52
2022/06/29 09:14:25;;;;;;;5.90;5.40;;;;;;;34.05;35.98;101478.14;1718867;83;21569;-48
2022/06/29 09:17:00;;;;;;;6.37;5.53;;;;;;;34.05;36.05;101476.80;1719041;82;20994;-52
2022/06/29 09:19:31;;;;;;;6.30;5.37;;;;;;;34.03;35.96;101477.47;1710051;80;20978;-51
2022/06/29 09:21:59;;;;;;;4.85;4.55;;;;;;;34.01;35.64;101482.19;1691517;82;21036;-51
2022/06/29 09:24:28;;;;;;;7.60;5.67;;;;;;;33.99;35.62;101480.13;1691356;83;21581;-49
2022/06/29 09:27:02;;;;;;;6.03;5.53;;;;;;;33.95;36.19;101482.83;1681367;84;21526;-50
2022/06/29 09:29:31;;;;;;;6.10;5.50;;;;;;;33.94;36.97;101482.50;1666473;85;21498;-51
2022/06/29 09:32:07;;;;;;;7.70;5.03;;;;;;;33.93;37.51;101474.05;1678171;85;21521;-52
2022/06/29 09:34:44;;;;;;;5.58;5.08;;;;;;;33.94;37.14;101473.91;1655633;85;21569;-53
2022/06/29 09:37:17;;;;;;;7.28;5.67;;;;;;;33.93;36.67;101469.50;1655077;85;22320;-51
2022/06/29 09:39:47;;;;;;;5.70;5.00;;;;;;;33.94;37.19;101474.41;1647133;85;21725;-52
2022/06/29 09:42:22;;;;;;;6.42;5.83;;;;;;;33.95;37.64;101476.08;1654851;85;21047;-51
2022/06/29 09:44:49;;;;;;;6.05;5.50;;;;;;;33.96;37.68;101477.28;1664374;85;21111;-49
2022/06/29 09:47:21;;;;;;;6.87;5.87;;;;;;;33.98;37.75;101473.06;1658140;85;21146;-49
2022/06/29 09:49:59;;;;;;;6.15;5.55;;;;;;;33.98;37.71;101468.51;1658651;85;21102;-51
2022/06/29 09:52:25;;;;;;;6.40;5.83;;;;;;;33.99;37.83;101470.68;1667461;85;21555;-52
2022/06/29 09:54:54;;;;;;;6.30;5.40;;;;;;;33.97;38.05;101463.25;1648842;85;21019;-52
2022/06/29 09:57:25;;;;;;;6.05;5.62;;;;;;;33.95;38.37;101465.27;1656720;85;21078;-50
2022/06/29 10:02:42;;;;;;;5.80;5.30;;;;;;;33.86;38.40;101461.72;1614659;87;22257;-55
2022/06/29 10:05:12;;;;;;;5.97;5.25;;;;;;;33.81;38.66;101464.09;1611240;88;21487;-54
2022/06/29 10:07:42;;;;;;;;;;;;;;;33.79;38.79;101462.56;1626775;87;21097;-51
2022/06/29 10:10:19;;;;;;;5.58;5.17;;;;;;;33.76;38.61;101465.08;1620667;87;20102;-53
2022/06/29 10:13:39;;;;;;;7.35;5.33;;;;;;;33.74;38.54;101462.23;1620887;87;21538;-49
2022/06/29 10:16:32;;;;;;;6.55;5.40;;;;;;;33.75;38.64;101466.61;1621896;87;21058;-49
2022/06/29 10:19:44;;;;;;;6.83;5.50;;;;;;;33.73;38.54;101468.13;1589899;89;21085;-54
2022/06/29 10:22:13;;;;;;;5.78;5.28;;;;;;;33.69;38.81;101467.27;1558768;90;21092;-50
2022/06/29 10:25:01;;;;;;;6.05;5.37;;;;;;;33.63;38.65;101466.91;1569356;90;21116;-49
2022/06/29 10:27:28;;;;;;;6.22;5.62;;;;;;;33.60;38.74;101470.45;1492174;94;21657;-53
2022/06/29 10:30:21;;;;;;;6.03;5.37;;;;;;;33.60;39.26;101477.20;1497317;94;21568;-55
2022/06/29 10:32:50;;;;;;;6.05;5.55;;;;;;;33.59;39.85;101479.05;1494000;94;21124;-50
2022/06/29 10:35:18;;;;;;;6.78;5.75;;;;;;;33.56;39.87;101473.99;1495319;94;21093;-53
2022/06/29 10:37:53;;;;;;;5.72;5.22;;;;;;;33.52;39.93;101469.93;1493216;95;21081;-52
2022/06/29 10:40:26;;;;;;;7.05;5.67;;;;;;;33.51;39.70;101470.92;1502026;95;21085;-50
2022/06/29 10:43:08;;;;;;;5.92;5.42;;;;;;;33.53;39.67;101470.25;1508856;94;21102;-52
2022/06/29 10:45:41;;;;;;;6.17;5.28;;;;;;;33.56;39.58;101472.64;1507107;95;21057;-50
2022/06/29 10:48:12;;;;;;;5.67;5.17;;;;;;;33.58;39.28;101480.06;1501570;94;21088;-51
2022/06/29 10:50:42;;;;;;;6.28;5.72;;;;;;;33.59;39.29;101479.05;1506328;94;21625;-50
2022/06/29 10:53:12;;;;;;;6.47;5.87;;;;;;;33.59;39.46;101479.57;1513074;94;21133;-51
2022/06/29 10:55:49;;;;;;;6.83;5.78;;;;;;;33.58;39.46;101478.72;1527724;92;21182;-56
2022/06/29 10:58:17;;;;;;;8.63;6.10;;;;;;;33.55;39.44;101474.98;1532599;92;21109;-49
2022/06/29 11:00:51;;;;;;;6.33;5.72;;;;;;;33.52;39.69;101477.17;1506541;94;21092;-50
2022/06/29 11:03:25;;;;;;;8.83;6.50;;;;;;;33.50;40.01;101474.65;1492733;94;21106;-51
2022/06/29 11:16:46;;;;;;;6.53;5.92;;;;;;;33.38;40.86;101471.03;1572988;90;21100;-51
2022/06/29 11:19:13;;;;;;;7.05;6.45;;;;;;;33.38;41.00;101473.23;1573102;90;21086;-53
2022/06/29 11:21:40;;;;;;;7.80;6.30;;;;;;;33.39;40.91;101472.20;1573181;90;21044;-51
2022/06/29 11:24:08;;;;;;;6.85;6.28;;;;;;;33.39;40.84;101473.55;1567371;90;21063;-51
2022/06/29 11:26:35;;;;;;;7.28;6.67;;;;;;;33.39;40.49;101468.16;1567497;91;21099;-50
2022/06/29 11:29:04;;;;;;;7.20;6.60;;;;;;;33.38;40.85;101470.53;1568018;90;21167;-51
2022/06/29 11:31:32;;;;;;;8.23;7.45;;;;;;;33.38;40.80;101469.68;1568474;90;21639;-53
2022/06/29 11:34:00;;;;;;;8.50;7.70;;;;;;;33.35;40.90;101473.55;1567570;91;21109;-53
2022/06/29 11:36:29;;;;;;;9.53;7.42;;;;;;;33.35;40.96;101474.04;1566735;90;21083;-50
2022/06/29 11:38:59;;;;;;;10.00;8.35;;;;;;;33.35;41.13;101473.55;1564300;90;21082;-50
2022/06/29 11:43:03;;;;;;;9.08;8.18;;;;;;;33.36;41.04;101464.45;1562433;90;21607;-49
2022/06/29 11:44:05;;;;;;;9.90;8.90;;;;;;;33.39;40.55;101467.30;1568128;91;21246;-52
2022/06/29 11:46:37;;;;;;;8.28;7.58;;;;;;;33.41;40.03;101467.49;1566799;91;21075;-53
2022/06/29 11:51:58;;;;;;;12.60;8.25;;;;;;;33.46;39.95;101465.16;1584122;88;21068;-48